createdAt,value
2022-08-28T00:01:12.857Z,51675.95
2022-08-28T00:03:42.964Z,51685.19
2022-08-28T00:06:13.073Z,51678.76
2022-08-28T00:08:43.427Z,51680.77
2022-08-28T00:11:13.474Z,51669.52
2022-08-28T00:13:43.333Z,51698.05
2022-08-28T00:16:13.448Z,51692.42
2022-08-28T00:18:43.698Z,51684.79
2022-08-28T00:21:17.200Z,51694.43
2022-08-28T00:23:47.349Z,51706.89
2022-08-28T00:26:37.395Z,51708.90
2022-08-28T00:29:08.465Z,51708.50
2022-08-28T00:31:39.821Z,51704.48
2022-08-28T00:34:10.399Z,51712.11
2022-08-28T00:36:41.962Z,51699.25
2022-08-28T00:39:12.421Z,51694.83
2022-08-28T00:41:42.405Z,51704.48
2022-08-28T00:44:15.341Z,51698.45
2022-08-28T00:46:46.642Z,51690.01
2022-08-28T00:49:18.243Z,51704.88
2022-08-28T00:52:05.806Z,51712.11
2022-08-28T00:54:37.098Z,51704.48
2022-08-28T00:57:08.228Z,51696.44
2022-08-28T00:59:38.375Z,51715.32
2022-08-28T01:02:08.439Z,51715.73
2022-08-28T01:04:38.440Z,51704.88
2022-08-28T01:07:09.798Z,51704.88
2022-08-28T01:09:41.756Z,51710.50
2022-08-28T01:12:13.179Z,51710.10
2022-08-28T01:14:46.099Z,51722.96
2022-08-28T01:17:16.923Z,51739.03
2022-08-28T01:19:52.827Z,51713.31
2022-08-28T01:22:24.444Z,51731.80
2022-08-28T01:24:54.673Z,51745.86
2022-08-28T01:27:25.020Z,51730.59
2022-08-28T01:29:55.549Z,51735.01
2022-08-28T01:32:34.078Z,51710.50
2022-08-28T01:35:04.081Z,51738.63
2022-08-28T01:37:34.382Z,51720.14
2022-08-28T01:40:04.927Z,51723.76
2022-08-28T01:42:39.712Z,51722.55
2022-08-28T01:45:12.332Z,51726.18
2022-08-28T01:47:42.560Z,51736.22
2022-08-28T01:50:13.683Z,51732.60
2022-08-28T01:52:44.420Z,51730.59
2022-08-28T01:55:14.468Z,51728.98
2022-08-28T01:57:45.576Z,51737.82
2022-08-28T02:00:16.451Z,51720.95
2022-08-28T02:02:48.538Z,51711.71
2022-08-28T02:05:19.316Z,51722.96
2022-08-28T02:07:49.357Z,51726.98
2022-08-28T02:10:19.859Z,51722.55
2022-08-28T02:12:50.247Z,51746.66
2022-08-28T02:15:20.243Z,51729.38
2022-08-28T02:17:53.468Z,51724.96
2022-08-28T02:20:23.433Z,51729.79
2022-08-28T02:22:53.540Z,51725.37
2022-08-28T02:25:23.912Z,51735.82
2022-08-28T02:27:53.984Z,51718.95
2022-08-28T02:30:24.201Z,51735.82
2022-08-28T02:32:54.416Z,51730.20
2022-08-28T02:35:24.696Z,51734.21
2022-08-28T02:37:55.479Z,51720.14
2022-08-28T02:40:26.263Z,51737.82
2022-08-28T02:42:56.584Z,51737.82
2022-08-28T02:45:26.758Z,51728.99
2022-08-28T02:47:57.208Z,51732.60
2022-08-28T02:50:27.399Z,51739.03
2022-08-28T02:52:57.494Z,51736.22
2022-08-28T02:55:31.379Z,51744.66
2022-08-28T02:58:04.626Z,51743.05
2022-08-28T03:00:34.873Z,51769.57
2022-08-28T03:03:05.598Z,51740.24
2022-08-28T03:05:35.820Z,51737.43
2022-08-28T03:08:06.360Z,51746.26
2022-08-28T03:10:36.436Z,51756.71
2022-08-28T03:13:06.932Z,51740.64
2022-08-28T03:15:38.640Z,51748.27
2022-08-28T03:18:11.330Z,51763.54
2022-08-28T03:20:41.438Z,51754.30
2022-08-28T03:23:30.598Z,51747.47
2022-08-28T03:26:01.076Z,51739.43
2022-08-28T03:28:31.470Z,51742.65
2022-08-28T03:31:01.600Z,51750.69
2022-08-28T03:33:31.670Z,51748.68
2022-08-28T03:36:04.688Z,51755.10
2022-08-28T03:38:35.520Z,51740.24
2022-08-28T03:41:05.939Z,51759.93
2022-08-28T03:43:36.193Z,51755.51
2022-08-28T03:46:06.850Z,51761.54
2022-08-28T03:48:37.318Z,51740.64
2022-08-28T03:51:10.178Z,51739.84
2022-08-28T03:53:40.532Z,51767.56
2022-08-28T03:56:11.273Z,51752.70
2022-08-28T03:58:41.730Z,51755.11
2022-08-28T04:01:11.725Z,51742.24
2022-08-28T04:03:41.677Z,51745.46
2022-08-28T04:06:12.379Z,51737.02
2022-08-28T04:08:42.503Z,51756.31
2022-08-28T04:11:12.667Z,51755.51
2022-08-28T04:13:43.049Z,51747.87
2022-08-28T04:16:17.317Z,51744.26
2022-08-28T04:18:47.718Z,51749.48
2022-08-28T04:21:18.220Z,51744.26
2022-08-28T04:23:48.322Z,51753.50
2022-08-28T04:26:18.811Z,51749.48
2022-08-28T04:28:49.086Z,51743.45
2022-08-28T04:31:31.689Z,51750.29
2022-08-28T04:34:02.747Z,51739.84
2022-08-28T04:36:33.864Z,51744.26
2022-08-28T04:39:05.494Z,51757.91
2022-08-28T04:41:37.085Z,51743.05
2022-08-28T04:44:07.005Z,51741.04
2022-08-28T04:46:36.964Z,51743.85
2022-08-28T04:49:07.285Z,51752.70
2022-08-28T04:51:41.488Z,51746.26
2022-08-28T04:54:12.138Z,51730.59
2022-08-28T04:56:42.054Z,51722.55
2022-08-28T04:59:12.216Z,51732.20
2022-08-28T05:01:49.091Z,51724.97
2022-08-28T05:04:20.036Z,51729.79
2022-08-28T05:06:50.077Z,51718.14
2022-08-28T05:09:20.369Z,51726.57
2022-08-28T05:11:50.375Z,51706.48
2022-08-28T05:14:22.150Z,51721.35
2022-08-28T05:16:53.103Z,51711.71
2022-08-28T05:19:24.453Z,51719.34
2022-08-28T05:21:54.653Z,51718.54
2022-08-28T05:24:24.499Z,51698.45
2022-08-28T05:26:54.465Z,51707.70
2022-08-28T05:29:24.409Z,51702.07
2022-08-28T05:31:55.514Z,51704.07
2022-08-28T05:34:25.688Z,51698.85
2022-08-28T05:36:55.773Z,51702.07
2022-08-28T05:39:25.722Z,51684.39
2022-08-28T05:41:55.660Z,51671.53
2022-08-28T05:44:25.831Z,51677.96
2022-08-28T05:46:56.389Z,51674.34
2022-08-28T05:49:27.069Z,51668.71
2022-08-28T05:51:58.027Z,51677.55
2022-08-28T05:54:29.165Z,51688.00
2022-08-28T05:56:59.306Z,51675.14
2022-08-28T05:59:29.339Z,51653.85
2022-08-28T06:02:04.015Z,51655.05
2022-08-28T06:04:35.838Z,51659.07
2022-08-28T06:07:06.851Z,51647.02
2022-08-28T06:09:38.660Z,51636.97
2022-08-28T06:12:08.895Z,51645.01
2022-08-28T06:14:40.265Z,51634.16
2022-08-28T06:17:11.163Z,51651.84
2022-08-28T06:19:41.793Z,51629.34
2022-08-28T06:22:15.059Z,51606.84
2022-08-28T06:24:45.135Z,51622.91
2022-08-28T06:27:15.072Z,51609.25
2022-08-28T06:29:45.092Z,51614.07
2022-08-28T06:32:15.817Z,51602.82
2022-08-28T06:34:46.171Z,51603.23
2022-08-28T06:37:16.194Z,51616.88
2022-08-28T06:39:46.131Z,51600.01
2022-08-28T06:42:16.058Z,51612.06
2022-08-28T06:44:46.067Z,51592.77
2022-08-28T06:47:16.419Z,51587.96
2022-08-28T06:49:46.623Z,51605.23
2022-08-28T06:52:16.718Z,51579.91
2022-08-28T06:54:54.470Z,51598.80
2022-08-28T06:57:26.612Z,51587.96
2022-08-28T06:59:58.478Z,51563.45
2022-08-28T07:02:28.777Z,51560.63
2022-08-28T07:04:58.681Z,51568.26
2022-08-28T07:07:32.677Z,51559.83
2022-08-28T07:10:02.866Z,51564.65
2022-08-28T07:12:32.939Z,51554.61
2022-08-28T07:15:04.263Z,51550.59
2022-08-28T07:17:34.181Z,51548.58
2022-08-28T07:20:04.557Z,51537.73
2022-08-28T07:22:34.529Z,51537.73
2022-08-28T07:25:05.393Z,51536.13
2022-08-28T07:27:35.371Z,51537.73
2022-08-28T07:30:06.705Z,51530.10
2022-08-28T07:32:36.714Z,51544.55
2022-08-28T07:35:07.517Z,51529.70
2022-08-28T07:37:37.869Z,51522.46
2022-08-28T07:40:12.180Z,51524.87
2022-08-28T07:42:59.749Z,51520.05
2022-08-28T07:45:31.693Z,51509.20
2022-08-28T07:48:01.663Z,51505.99
2022-08-28T07:50:32.133Z,51507.20
2022-08-28T07:53:02.068Z,51512.42
2022-08-28T07:55:33.039Z,51501.57
2022-08-28T07:58:03.644Z,51517.64
2022-08-28T08:00:33.763Z,51498.36
2022-08-28T08:03:03.973Z,51501.97
2022-08-28T08:05:34.194Z,51502.77
2022-08-28T08:08:04.287Z,51496.75
2022-08-28T08:10:34.447Z,51491.52
2022-08-28T08:13:05.419Z,51477.06
2022-08-28T08:15:37.686Z,51481.48
2022-08-28T08:18:08.187Z,51480.68
2022-08-28T08:20:39.771Z,51471.04
2022-08-28T08:23:09.713Z,51484.69
2022-08-28T08:25:39.871Z,51485.50
2022-08-28T08:28:10.218Z,51479.07
2022-08-28T08:30:40.164Z,51468.22
2022-08-28T08:33:10.288Z,51466.61
2022-08-28T08:35:40.428Z,51461.79
2022-08-28T08:38:10.422Z,51463.00
2022-08-28T08:40:44.146Z,51468.22
2022-08-28T08:43:14.565Z,51458.18
2022-08-28T08:45:44.516Z,51435.27
2022-08-28T08:48:15.562Z,51443.31
2022-08-28T08:50:45.452Z,51433.27
2022-08-28T08:53:20.280Z,51420.01
2022-08-28T08:55:51.573Z,51420.41
2022-08-28T08:58:24.840Z,51421.62
2022-08-28T09:00:57.712Z,51402.33
2022-08-28T09:03:29.026Z,51395.09
2022-08-28T09:05:59.764Z,51384.65
2022-08-28T09:08:32.546Z,51380.23
2022-08-28T09:11:03.828Z,51383.04
2022-08-28T09:13:36.430Z,51354.92
2022-08-28T09:16:07.325Z,51368.18
2022-08-28T09:18:38.431Z,51356.52
2022-08-28T09:21:09.537Z,51366.98
2022-08-28T09:23:39.587Z,51370.59
2022-08-28T09:26:12.621Z,51338.04
2022-08-28T09:28:45.108Z,51342.46
2022-08-28T09:31:20.174Z,51340.05
2022-08-28T09:33:51.520Z,51351.71
2022-08-28T09:36:28.861Z,51348.09
2022-08-28T09:39:12.660Z,51348.49
2022-08-28T09:42:01.571Z,51360.54
2022-08-28T09:44:31.470Z,51360.14
2022-08-28T09:47:01.896Z,51321.17
2022-08-28T09:49:31.853Z,51334.83
2022-08-28T09:52:01.941Z,51331.62
2022-08-28T09:54:34.780Z,51322.78
2022-08-28T09:57:04.839Z,51312.33
2022-08-28T09:59:35.128Z,51319.56
2022-08-28T10:02:10.697Z,51320.37
2022-08-28T10:04:43.222Z,51301.49
2022-08-28T10:07:15.372Z,51303.49
2022-08-28T10:09:48.192Z,51298.27
2022-08-28T10:12:20.514Z,51285.41
2022-08-28T10:14:52.849Z,51277.78
2022-08-28T10:17:26.040Z,51260.10
2022-08-28T10:19:59.673Z,51280.99
2022-08-28T10:22:31.677Z,51258.50
2022-08-28T10:25:05.293Z,51276.98
2022-08-28T10:27:40.539Z,51271.35
2022-08-28T10:30:13.516Z,51269.74
2022-08-28T10:32:56.074Z,51259.30
2022-08-28T10:35:27.303Z,51244.03
2022-08-28T10:37:59.822Z,51241.22
2022-08-28T10:40:30.944Z,51248.85
2022-08-28T10:43:03.718Z,51223.95
2022-08-28T10:45:33.699Z,51224.74
2022-08-28T10:48:07.101Z,51228.77
2022-08-28T10:50:39.006Z,51215.91
2022-08-28T10:53:09.147Z,51232.38
2022-08-28T10:55:40.109Z,51218.32
2022-08-28T10:58:24.613Z,51216.31
2022-08-28T11:00:56.519Z,51216.31
2022-08-28T11:03:35.258Z,51217.11
2022-08-28T11:06:07.039Z,51237.20
2022-08-28T11:08:37.775Z,51244.03
2022-08-28T11:11:08.450Z,51227.96
2022-08-28T11:13:44.712Z,51222.73
2022-08-28T11:16:18.727Z,51223.95
2022-08-28T11:19:02.512Z,51200.64
2022-08-28T11:21:33.549Z,51226.76
2022-08-28T11:24:05.250Z,51193.81
2022-08-28T11:26:37.935Z,51184.98
2022-08-28T11:29:07.710Z,51185.78
2022-08-28T11:31:41.645Z,51177.74
2022-08-28T11:34:12.439Z,51172.92
2022-08-28T11:37:04.171Z,51171.71
2022-08-28T11:39:34.057Z,51164.88
2022-08-28T11:42:32.611Z,51153.64
2022-08-28T11:45:02.926Z,51157.65
2022-08-28T11:47:39.957Z,51164.48
2022-08-28T11:50:16.019Z,51144.40
2022-08-28T11:52:59.593Z,51144.40
2022-08-28T11:55:32.001Z,51139.98
2022-08-28T12:00:38.357Z,51152.83
2022-08-28T12:03:12.115Z,51156.45
2022-08-28T12:05:52.213Z,51168.90
2022-08-28T12:08:39.542Z,51178.95
2022-08-28T12:11:09.527Z,51140.78
2022-08-28T12:13:50.047Z,51158.05
2022-08-28T12:16:20.346Z,51154.04
2022-08-28T12:19:01.646Z,51152.43
2022-08-28T12:21:32.371Z,51141.98
2022-08-28T12:24:09.121Z,51137.57
2022-08-28T12:26:40.418Z,51160.47
2022-08-28T12:29:22.717Z,51179.34
2022-08-28T12:32:13.315Z,51183.37
2022-08-28T12:34:47.426Z,51195.42
2022-08-28T12:37:39.542Z,51201.04
2022-08-28T12:40:23.898Z,51194.62
2022-08-28T12:42:55.553Z,51199.84
2022-08-28T12:45:29.889Z,51207.07
2022-08-28T12:48:00.746Z,51204.26
2022-08-28T12:50:32.866Z,51191.00
2022-08-28T12:53:03.531Z,51184.57
2022-08-28T12:55:33.738Z,51169.71
2022-08-28T12:58:03.565Z,51162.07
2022-08-28T13:00:35.396Z,51148.01
2022-08-28T13:03:08.191Z,51133.15
2022-08-28T13:05:41.386Z,51138.37
2022-08-28T13:08:12.121Z,51135.55
2022-08-28T13:10:42.334Z,51120.29
2022-08-28T13:13:12.651Z,51105.43
2022-08-28T13:15:50.152Z,51117.48
2022-08-28T13:18:39.567Z,51094.98
2022-08-28T13:21:34.491Z,51101.81
2022-08-28T13:24:18.476Z,51102.62
2022-08-28T13:26:48.894Z,51101.01
2022-08-28T13:29:20.195Z,51113.86
2022-08-28T13:31:58.018Z,51140.78
2022-08-28T13:34:28.394Z,51131.94
2022-08-28T13:37:00.062Z,51128.73
2022-08-28T13:39:30.508Z,51125.11
2022-08-28T13:42:02.108Z,51121.10
2022-08-28T13:44:33.946Z,51112.66
2022-08-28T13:47:04.233Z,51123.91
2022-08-28T13:49:34.389Z,51111.86
2022-08-28T13:52:05.743Z,51111.05
2022-08-28T13:54:37.022Z,51113.46
2022-08-28T13:57:11.485Z,51103.02
2022-08-28T13:59:41.486Z,51111.45
2022-08-28T14:02:30.539Z,51109.04
2022-08-28T14:05:01.418Z,51117.88
2022-08-28T14:07:31.555Z,51124.71
2022-08-28T14:10:02.130Z,51131.54
2022-08-28T14:12:33.234Z,51139.17
2022-08-28T14:15:04.050Z,51133.95
2022-08-28T14:17:33.853Z,51132.34
2022-08-28T14:20:04.965Z,51114.27
2022-08-28T14:22:35.663Z,51101.01
2022-08-28T14:25:06.463Z,51121.90
2022-08-28T14:27:36.369Z,51119.89
2022-08-28T14:30:07.856Z,51096.19
2022-08-28T14:32:37.639Z,51105.83
2022-08-28T14:35:08.518Z,51117.07
2022-08-28T14:37:38.627Z,51103.82
2022-08-28T14:40:10.232Z,51114.27
2022-08-28T14:42:42.202Z,51123.51
2022-08-28T14:45:12.974Z,51126.32
2022-08-28T14:47:43.705Z,51128.32
2022-08-28T14:50:14.508Z,51146.01
2022-08-28T14:52:44.484Z,51143.99
2022-08-28T14:55:15.336Z,51144.00
2022-08-28T14:57:51.176Z,51157.66
2022-08-28T15:00:22.568Z,51162.07
2022-08-28T15:02:59.624Z,51172.52
2022-08-28T15:05:30.389Z,51161.67
2022-08-28T15:08:00.331Z,51180.15
2022-08-28T15:10:30.260Z,51173.32
2022-08-28T15:13:00.360Z,51186.58
2022-08-28T15:15:30.733Z,51193.41
2022-08-28T15:18:02.289Z,51190.20
2022-08-28T15:20:32.469Z,51200.64
2022-08-28T15:23:02.640Z,51182.96
2022-08-28T15:25:32.918Z,51200.24
2022-08-28T15:28:03.204Z,51202.65
2022-08-28T15:30:33.398Z,51203.05
2022-08-28T15:33:03.543Z,51212.70
2022-08-28T15:35:34.721Z,51207.07
2022-08-28T15:38:04.911Z,51201.45
2022-08-28T15:40:52.913Z,51217.92
2022-08-28T15:43:22.727Z,51214.30
2022-08-28T15:45:52.927Z,51220.73
2022-08-28T15:48:23.088Z,51229.16
2022-08-28T15:50:53.363Z,51238.81
2022-08-28T15:53:23.813Z,51251.66
2022-08-28T15:55:53.643Z,51270.55
2022-08-28T15:58:23.721Z,51274.16
2022-08-28T16:00:53.684Z,51297.87
2022-08-28T16:03:23.530Z,51275.37
2022-08-28T16:05:53.710Z,51294.25
2022-08-28T16:08:23.504Z,51292.65
2022-08-28T16:10:53.694Z,51311.93
2022-08-28T16:13:23.940Z,51332.42
2022-08-28T16:15:54.126Z,51352.11
2022-08-28T16:18:24.110Z,51361.34
2022-08-28T16:20:53.881Z,51379.02
2022-08-28T16:23:23.943Z,51387.46
2022-08-28T16:25:54.463Z,51408.36
2022-08-28T16:28:24.536Z,51415.99
2022-08-28T16:30:57.053Z,51442.11
2022-08-28T16:33:27.394Z,51454.55
2022-08-28T16:35:58.034Z,51450.14
2022-08-28T16:38:27.993Z,51467.02
2022-08-28T16:40:58.318Z,51463.40
2022-08-28T16:43:29.326Z,51468.22
2022-08-28T16:45:59.156Z,51477.46
2022-08-28T16:48:28.939Z,51478.67
2022-08-28T16:50:59.434Z,51493.93
2022-08-28T16:53:29.283Z,51493.53
2022-08-28T16:55:59.166Z,51498.76
2022-08-28T16:58:29.299Z,51489.92
2022-08-28T17:00:59.205Z,51510.41
2022-08-28T17:03:29.726Z,51509.21
2022-08-28T17:05:59.568Z,51525.68
2022-08-28T17:08:29.622Z,51528.49
2022-08-28T17:11:00.140Z,51512.42
2022-08-28T17:13:30.860Z,51520.86
2022-08-28T17:16:01.148Z,51541.75
2022-08-28T17:18:31.608Z,51537.32
2022-08-28T17:21:18.980Z,51530.10
2022-08-28T17:23:50.215Z,51547.37
2022-08-28T17:26:20.132Z,51548.18
2022-08-28T17:28:51.467Z,51555.81
2022-08-28T17:31:21.413Z,51567.46
2022-08-28T17:33:51.819Z,51554.21
2022-08-28T17:36:32.549Z,51576.71
2022-08-28T17:39:07.082Z,51567.86
2022-08-28T17:41:37.379Z,51560.23
2022-08-28T17:44:07.540Z,51579.12
2022-08-28T17:46:38.194Z,51561.43
2022-08-28T17:49:08.396Z,51589.16
2022-08-28T17:51:43.684Z,51581.93
2022-08-28T17:54:14.750Z,51570.68
2022-08-28T17:56:45.160Z,51581.52
2022-08-28T17:59:15.301Z,51587.55
2022-08-28T18:01:46.964Z,51581.52
2022-08-28T18:04:23.059Z,51586.75
2022-08-28T18:06:54.925Z,51599.61
2022-08-28T18:09:25.665Z,51597.60
2022-08-28T18:11:55.955Z,51593.98
2022-08-28T18:14:25.905Z,51614.47
2022-08-28T18:16:57.127Z,51595.18
2022-08-28T18:19:27.424Z,51598.00
2022-08-28T18:21:57.476Z,51613.27
2022-08-28T18:24:27.477Z,51614.07
2022-08-28T18:26:58.611Z,51619.29
2022-08-28T18:29:28.799Z,51616.48
2022-08-28T18:31:59.024Z,51615.68
2022-08-28T18:34:30.031Z,51617.29
2022-08-28T18:37:01.174Z,51612.06
2022-08-28T18:39:31.063Z,51615.68
2022-08-28T18:42:02.829Z,51624.52
2022-08-28T18:44:33.071Z,51612.87
2022-08-28T18:47:02.900Z,51624.92
2022-08-28T18:49:32.962Z,51641.79
2022-08-28T18:52:03.755Z,51634.96
2022-08-28T18:54:33.619Z,51620.50
2022-08-28T18:57:04.625Z,51640.59
2022-08-28T18:59:35.669Z,51638.58
2022-08-28T19:02:06.000Z,51645.01
2022-08-28T19:04:35.975Z,51658.68
2022-08-28T19:07:05.980Z,51643.80
2022-08-28T19:09:35.931Z,51660.68
2022-08-28T19:12:06.564Z,51639.38
2022-08-28T19:14:36.318Z,51646.61
2022-08-28T19:17:06.250Z,51648.63
2022-08-28T19:19:36.182Z,51651.84
2022-08-28T19:22:06.679Z,51651.44
2022-08-28T19:24:36.226Z,51652.24
2022-08-28T19:27:06.341Z,51668.32
2022-08-28T19:29:36.821Z,51648.22
2022-08-28T19:32:06.986Z,51663.49
2022-08-28T19:34:37.263Z,51661.89
2022-08-28T19:37:07.853Z,51675.55
2022-08-28T19:39:37.796Z,51669.12
2022-08-28T19:42:08.388Z,51673.94
2022-08-28T19:44:40.082Z,51658.27
2022-08-28T19:47:10.518Z,51670.32
2022-08-28T19:49:41.332Z,51670.32
2022-08-28T19:52:11.324Z,51681.17
2022-08-28T19:54:42.636Z,51679.56
2022-08-28T19:57:12.633Z,51681.57
2022-08-28T19:59:42.729Z,51671.93
2022-08-28T20:02:15.274Z,51687.20
2022-08-28T20:04:45.263Z,51685.59
2022-08-28T20:07:15.697Z,51675.14
2022-08-28T20:09:45.474Z,51690.01
2022-08-28T20:12:15.802Z,51692.42
2022-08-28T20:14:45.802Z,51681.57
2022-08-28T20:17:15.807Z,51697.64
2022-08-28T20:19:45.614Z,51703.68
2022-08-28T20:22:15.637Z,51697.24
2022-08-28T20:24:45.600Z,51694.84
2022-08-28T20:27:15.555Z,51702.07
2022-08-28T20:29:45.334Z,51690.81
2022-08-28T20:32:15.320Z,51697.25
2022-08-28T20:34:45.123Z,51686.80
2022-08-28T20:37:16.911Z,51713.71
2022-08-28T20:39:47.641Z,51696.04
2022-08-28T20:42:17.482Z,51702.87
2022-08-28T20:44:47.622Z,51706.49
2022-08-28T20:47:17.359Z,51704.07
2022-08-28T20:49:48.608Z,51718.14
2022-08-28T20:52:18.727Z,51705.68
2022-08-28T20:54:48.715Z,51709.30
2022-08-28T20:57:19.339Z,51722.16
2022-08-28T20:59:49.232Z,51718.14
2022-08-28T21:02:19.901Z,51704.48
2022-08-28T21:04:50.266Z,51694.43
2022-08-28T21:07:20.754Z,51721.76
2022-08-28T21:10:04.251Z,51719.34
2022-08-28T21:12:37.489Z,51727.78
2022-08-28T21:15:12.731Z,51715.32
2022-08-28T21:17:42.857Z,51716.53
2022-08-28T21:20:14.081Z,51724.57
2022-08-28T21:22:44.166Z,51731.80
2022-08-28T21:25:15.083Z,51725.37
2022-08-28T21:27:45.131Z,51730.19
2022-08-28T21:30:16.258Z,51729.39
2022-08-28T21:32:46.227Z,51743.05
2022-08-28T21:35:19.730Z,51727.78
2022-08-28T21:37:50.330Z,51724.97
2022-08-28T21:40:21.426Z,51740.64
2022-08-28T21:42:51.532Z,51734.21
2022-08-28T21:45:22.764Z,51742.25
2022-08-28T21:47:52.683Z,51730.99
2022-08-28T21:50:22.693Z,51744.66
2022-08-28T21:52:52.574Z,51751.89
2022-08-28T21:55:22.810Z,51753.50
2022-08-28T21:57:52.878Z,51743.45
2022-08-28T22:00:23.376Z,51749.88
2022-08-28T22:02:53.291Z,51742.65
2022-08-28T22:05:23.807Z,51753.90
2022-08-28T22:07:53.732Z,51750.68
2022-08-28T22:10:26.134Z,51750.28
2022-08-28T22:12:55.936Z,51746.27
2022-08-28T22:15:25.761Z,51752.29
2022-08-28T22:17:55.637Z,51758.32
2022-08-28T22:20:25.804Z,51751.09
2022-08-28T22:23:11.109Z,51755.51
2022-08-28T22:25:41.301Z,51752.29
2022-08-28T22:28:11.222Z,51748.27
2022-08-28T22:30:41.157Z,51755.91
2022-08-28T22:33:12.326Z,51760.33
2022-08-28T22:35:42.243Z,51772.38
2022-08-28T22:38:12.675Z,51764.35
2022-08-28T22:40:42.627Z,51759.93
2022-08-28T22:43:12.859Z,51768.36
2022-08-28T22:45:42.986Z,51762.74
2022-08-28T22:48:12.940Z,51759.93
2022-08-28T22:50:43.167Z,51768.37
2022-08-28T22:53:12.852Z,51762.34
2022-08-28T22:55:43.538Z,51771.18
2022-08-28T22:58:14.401Z,51782.83
2022-08-28T23:00:44.431Z,51780.82
2022-08-28T23:03:14.264Z,51763.14
2022-08-28T23:05:44.160Z,51769.17
2022-08-28T23:08:14.138Z,51780.02
2022-08-28T23:10:58.695Z,51767.56
2022-08-28T23:13:29.760Z,51773.59
2022-08-28T23:15:59.815Z,51780.02
2022-08-28T23:18:29.741Z,51773.99
2022-08-28T23:21:01.618Z,51772.38
2022-08-28T23:23:31.529Z,51788.05
2022-08-28T23:26:01.425Z,51777.61
2022-08-28T23:28:31.387Z,51770.37
2022-08-28T23:31:01.394Z,51775.20
2022-08-28T23:33:31.328Z,51784.84
2022-08-28T23:36:02.088Z,51789.66
2022-08-28T23:38:31.928Z,51784.44
2022-08-28T23:41:02.300Z,51781.22
2022-08-28T23:43:32.718Z,51781.23
2022-08-28T23:46:02.691Z,51790.06
2022-08-28T23:48:32.542Z,51812.16
2022-08-28T23:51:02.575Z,51807.34
2022-08-28T23:53:32.381Z,51784.84
2022-08-28T23:56:05.599Z,51799.71
2022-08-28T23:58:35.456Z,51801.71
